sim
Sign-in with your pilot id or email,
or register
Callsign
Passwort

Schedule Details

Flight Number: DLH2307 (3)
Departure: Amsterdam Schiphol Airport (EHAM) at 16:00
Arrival: Munich Airport (EDDM) at 17:20
Route: Lufthansa Passenger Schedule. Enter filed route here before submitting Pirep.

Weather Information
Getting current METAR information for EHAM 240855Z 19017KT 170V230 9999 FEW018 14/10 Q1000 NOSIG
Getting current METAR information for EDDM 240850Z 25008KT CAVOK 17/14 Q1011 NOSIG

Schedule Frequency

Route Map